createdAt,value
2022-11-24T00:00:38.965Z,11.84
2022-11-24T00:05:45.088Z,10.30
2022-11-24T00:10:51.312Z,11.59
2022-11-24T00:15:57.358Z,10.72
2022-11-24T00:21:03.667Z,10.11
2022-11-24T00:26:09.810Z,11.93
2022-11-24T00:31:17.407Z,10.67
2022-11-24T00:36:21.668Z,11.06
2022-11-24T00:41:27.861Z,12.68
2022-11-24T00:46:34.060Z,11.31
2022-11-24T00:51:40.157Z,10.18
2022-11-24T00:56:46.297Z,11.48
2022-11-24T01:01:52.495Z,13.52
2022-11-24T01:06:58.563Z,12.70
2022-11-24T01:12:04.772Z,13.91
2022-11-24T01:17:10.928Z,14.22
2022-11-24T01:22:17.389Z,15.53
2022-11-24T01:27:23.525Z,18.39
2022-11-24T01:32:29.722Z,16.51
2022-11-24T01:37:35.867Z,17.64
2022-11-24T01:42:42.101Z,14.45
2022-11-24T01:47:48.256Z,16.14
2022-11-24T01:52:54.473Z,19.29
2022-11-24T01:58:00.534Z,22.39
2022-11-24T02:03:06.746Z,19.46
2022-11-24T02:08:12.851Z,19.75
2022-11-24T02:13:19.057Z,17.57
2022-11-24T02:18:25.224Z,18.49
2022-11-24T02:23:31.390Z,16.90
2022-11-24T02:28:38.276Z,18.05
2022-11-24T02:33:44.534Z,19.41
2022-11-24T02:38:50.659Z,17.11
2022-11-24T02:43:56.883Z,18.21
2022-11-24T02:49:02.951Z,21.81
2022-11-24T02:54:09.444Z,21.25
2022-11-24T02:59:15.602Z,20.67
2022-11-24T03:04:21.890Z,18.85
2022-11-24T03:09:27.976Z,22.36
2022-11-24T03:14:34.389Z,23.37
2022-11-24T03:19:40.323Z,18.99
2022-11-24T03:24:46.553Z,19.71
2022-11-24T03:29:52.617Z,23.79
2022-11-24T03:34:58.808Z,19.99
2022-11-24T03:40:04.890Z,21.69
2022-11-24T03:45:38.107Z,21.59
2022-11-24T03:50:16.997Z,19.91
2022-11-24T03:55:23.185Z,19.20
2022-11-24T04:00:29.376Z,21.63
2022-11-24T04:05:35.653Z,15.76
2022-11-24T04:10:42.172Z,18.77
2022-11-24T04:15:48.594Z,18.47
2022-11-24T04:20:54.703Z,22.20
2022-11-24T04:26:01.161Z,22.95
2022-11-24T04:31:07.560Z,21.84
2022-11-24T04:36:13.712Z,20.39
2022-11-24T04:41:19.808Z,24.64
2022-11-24T04:46:26.519Z,23.68
2022-11-24T04:51:32.505Z,22.94
2022-11-24T04:56:38.716Z,21.57
2022-11-24T05:01:44.938Z,23.97
2022-11-24T05:06:51.085Z,22.43
2022-11-24T05:11:57.236Z,19.31
2022-11-24T05:17:03.501Z,21.26
2022-11-24T05:22:09.550Z,19.65
2022-11-24T05:27:15.715Z,18.53
2022-11-24T05:32:21.890Z,24.62
2022-11-24T05:37:28.120Z,19.76
2022-11-24T05:42:34.274Z,21.24
2022-11-24T05:47:40.842Z,22.94
2022-11-24T05:52:46.928Z,19.18
2022-11-24T05:57:53.219Z,20.22
2022-11-24T06:02:59.508Z,20.25
2022-11-24T06:08:05.599Z,20.77
2022-11-24T06:13:11.674Z,23.53
2022-11-24T06:18:18.183Z,19.22
2022-11-24T06:23:24.328Z,17.32
2022-11-24T06:28:30.606Z,20.08
2022-11-24T06:33:36.803Z,21.48
2022-11-24T06:38:43.092Z,15.82
2022-11-24T06:43:49.202Z,21.43
2022-11-24T06:48:55.433Z,23.10
2022-11-24T06:54:01.507Z,22.26
2022-11-24T06:59:07.792Z,22.44
2022-11-24T07:04:13.890Z,20.73
2022-11-24T07:09:20.086Z,21.65
2022-11-24T07:14:26.141Z,21.06
2022-11-24T07:19:32.365Z,18.36
2022-11-24T07:24:38.416Z,19.88
2022-11-24T07:29:44.699Z,18.44
2022-11-24T07:34:51.169Z,21.91
2022-11-24T07:39:58.148Z,19.86
2022-11-24T07:45:06.403Z,18.70
2022-11-24T07:50:12.634Z,20.46
2022-11-24T07:55:18.797Z,19.94
2022-11-24T08:00:25.355Z,23.28
2022-11-24T08:05:31.569Z,22.12
2022-11-24T08:10:37.720Z,20.66
2022-11-24T08:15:43.781Z,19.77
2022-11-24T08:20:49.996Z,18.89
2022-11-24T08:25:57.118Z,22.34
2022-11-24T08:31:01.791Z,26.10
2022-11-24T08:36:08.181Z,23.86
2022-11-24T08:41:14.368Z,22.91
2022-11-24T08:46:20.570Z,17.47
2022-11-24T08:51:26.921Z,23.92
2022-11-24T08:56:33.056Z,17.34
2022-11-24T09:01:39.385Z,22.71
2022-11-24T09:06:45.316Z,23.82
2022-11-24T09:11:51.540Z,28.29
2022-11-24T09:16:57.661Z,19.35
2022-11-24T09:22:04.149Z,27.28
2022-11-24T09:27:10.300Z,20.14
2022-11-24T09:32:16.484Z,20.20
2022-11-24T09:37:24.283Z,20.36
2022-11-24T09:42:28.517Z,25.14
2022-11-24T09:47:34.571Z,20.36
2022-11-24T09:52:40.718Z,21.72
2022-11-24T09:57:46.869Z,20.13
2022-11-24T10:02:53.061Z,20.88
2022-11-24T10:07:59.180Z,18.75
2022-11-24T10:13:05.322Z,19.61
2022-11-24T10:18:16.557Z,16.88
2022-11-24T10:23:17.281Z,16.95
2022-11-24T10:28:23.342Z,15.10
2022-11-24T10:33:30.818Z,19.12
2022-11-24T10:38:35.430Z,18.14
2022-11-24T10:43:41.622Z,17.93
2022-11-24T10:48:48.021Z,19.03
2022-11-24T10:53:54.216Z,20.28
2022-11-24T10:59:00.296Z,18.17
2022-11-24T11:04:06.450Z,18.98
2022-11-24T11:09:12.528Z,17.31
2022-11-24T11:14:18.706Z,16.53
2022-11-24T11:19:47.460Z,14.17
2022-11-24T11:24:30.461Z,14.41
2022-11-24T11:34:42.231Z,11.10
2022-11-24T11:39:48.939Z,13.26
2022-11-24T11:44:53.977Z,15.29
2022-11-24T11:50:00.064Z,14.42
2022-11-24T11:55:06.309Z,14.99
2022-11-24T12:00:12.430Z,13.18
2022-11-24T12:05:18.553Z,12.70
2022-11-24T12:10:24.640Z,13.07
2022-11-24T12:15:30.948Z,11.72
2022-11-24T12:20:37.019Z,13.74
2022-11-24T12:25:43.239Z,13.19
2022-11-24T12:30:49.389Z,10.80
2022-11-24T12:35:55.499Z,10.67
2022-11-24T12:41:25.613Z,12.31
2022-11-24T12:46:11.079Z,9.44
2022-11-24T12:51:12.932Z,9.00
2022-11-24T12:56:19.096Z,11.18
2022-11-24T13:01:25.234Z,9.76
2022-11-24T13:06:32.151Z,11.05
2022-11-24T13:11:38.235Z,11.00
2022-11-24T13:16:59.271Z,10.10
2022-11-24T13:21:50.027Z,9.28
2022-11-24T13:26:56.295Z,7.92
2022-11-24T13:32:02.416Z,9.61
2022-11-24T13:37:31.150Z,7.98
2022-11-24T13:42:42.175Z,8.49
2022-11-24T13:47:19.914Z,9.75
2022-11-24T13:52:25.982Z,10.50
2022-11-24T13:57:32.250Z,8.05
2022-11-24T14:02:38.356Z,8.71
2022-11-24T14:07:44.580Z,9.95
2022-11-24T14:12:50.591Z,8.10
2022-11-24T14:17:56.880Z,9.18
2022-11-24T14:23:03.038Z,12.06
2022-11-24T14:28:09.376Z,11.12
2022-11-24T14:33:15.368Z,11.67
2022-11-24T14:38:21.527Z,8.36
2022-11-24T14:43:27.577Z,9.24
2022-11-24T14:48:33.873Z,10.86
2022-11-24T14:53:40.017Z,9.70
2022-11-24T14:58:46.627Z,10.25
2022-11-24T15:03:52.701Z,10.81
2022-11-24T15:08:58.991Z,10.12
2022-11-24T15:14:05.207Z,9.97
2022-11-24T15:19:11.598Z,10.79
2022-11-24T15:24:17.671Z,9.90
2022-11-24T15:29:23.920Z,11.82
2022-11-24T15:34:30.029Z,12.56
2022-11-24T15:39:36.714Z,11.44
2022-11-24T15:44:42.826Z,14.53
2022-11-24T15:49:49.113Z,12.87
2022-11-24T15:54:55.240Z,13.53
2022-11-24T16:00:01.512Z,14.49
2022-11-24T16:05:07.673Z,11.99
2022-11-24T16:10:13.872Z,15.17
2022-11-24T16:15:19.959Z,14.97
2022-11-24T16:20:26.174Z,14.15
2022-11-24T16:25:32.295Z,16.00
2022-11-24T16:30:38.446Z,18.54
2022-11-24T16:35:44.876Z,19.77
2022-11-24T16:40:51.276Z,16.62
2022-11-24T16:45:57.311Z,19.96
2022-11-24T16:51:03.513Z,19.72
2022-11-24T16:56:09.651Z,19.94
2022-11-24T17:01:15.938Z,19.52
2022-11-24T17:06:21.924Z,20.84
2022-11-24T17:11:28.075Z,21.63
2022-11-24T17:16:34.253Z,21.13
2022-11-24T17:21:40.457Z,20.31
2022-11-24T17:26:49.104Z,22.75
2022-11-24T17:31:52.427Z,25.81
2022-11-24T17:36:58.577Z,23.11
2022-11-24T17:42:05.050Z,23.71
2022-11-24T17:47:11.119Z,25.04
2022-11-24T17:52:17.241Z,21.64
2022-11-24T17:57:23.372Z,25.24
2022-11-24T18:02:29.686Z,21.85
2022-11-24T18:07:35.768Z,25.77
2022-11-24T18:12:42.231Z,27.28
2022-11-24T18:17:48.300Z,26.38
2022-11-24T18:23:05.950Z,23.98
2022-11-24T18:28:00.460Z,29.03
2022-11-24T18:33:06.592Z,28.21
2022-11-24T18:38:12.686Z,24.23
2022-11-24T18:43:18.925Z,28.03
2022-11-24T18:48:25.082Z,28.16
2022-11-24T18:53:31.309Z,26.13
2022-11-24T18:58:37.482Z,26.92
2022-11-24T19:03:48.304Z,30.24
2022-11-24T19:08:49.561Z,24.06
2022-11-24T19:13:56.014Z,25.78
2022-11-24T19:19:02.221Z,29.50
2022-11-24T19:24:08.293Z,24.87
2022-11-24T19:29:14.449Z,27.70
2022-11-24T19:34:20.793Z,26.21
2022-11-24T19:39:26.910Z,26.67
2022-11-24T19:44:33.234Z,24.82
2022-11-24T19:49:38.759Z,29.86
2022-11-24T19:54:44.977Z,25.82
2022-11-24T19:59:51.165Z,25.33
2022-11-24T20:04:57.358Z,23.73
2022-11-24T20:10:07.769Z,25.84
2022-11-24T20:15:09.238Z,25.17
2022-11-24T20:20:15.405Z,25.77
2022-11-24T20:25:21.624Z,29.13
2022-11-24T20:30:27.723Z,25.98
2022-11-24T20:35:34.009Z,25.28
2022-11-24T20:40:40.186Z,24.74
2022-11-24T20:45:46.569Z,24.21
2022-11-24T20:50:52.672Z,25.25
2022-11-24T20:56:02.894Z,28.35
2022-11-24T21:01:04.871Z,23.13
2022-11-24T21:06:11.454Z,27.19
2022-11-24T21:11:17.596Z,25.71
2022-11-24T21:16:24.049Z,25.71
2022-11-24T21:21:50.577Z,31.15
2022-11-24T21:27:00.052Z,26.33
2022-11-24T21:32:06.324Z,28.34
2022-11-24T21:37:12.505Z,29.35
2022-11-24T21:42:18.566Z,26.05
2022-11-24T21:47:24.899Z,29.06
2022-11-24T21:52:31.055Z,29.67
2022-11-24T21:57:37.253Z,28.09
2022-11-24T22:02:43.475Z,28.53
2022-11-24T22:07:49.631Z,30.43
2022-11-24T22:12:55.678Z,29.13
2022-11-24T22:18:01.891Z,28.63
2022-11-24T22:23:08.060Z,29.97
2022-11-24T22:28:14.226Z,27.73
2022-11-24T22:33:20.272Z,26.30
2022-11-24T22:38:26.845Z,28.74
2022-11-24T22:43:32.997Z,29.56
2022-11-24T22:48:39.280Z,33.91
2022-11-24T22:53:46.115Z,31.63
2022-11-24T22:58:52.264Z,31.53
2022-11-24T23:03:58.424Z,31.97
2022-11-24T23:09:04.563Z,29.70
2022-11-24T23:14:11.006Z,27.11
2022-11-24T23:19:17.284Z,26.78
2022-11-24T23:24:23.757Z,34.27
2022-11-24T23:29:29.927Z,28.64
2022-11-24T23:34:36.515Z,27.64
2022-11-24T23:39:42.536Z,26.04
2022-11-24T23:44:48.677Z,26.55
2022-11-24T23:49:55.687Z,31.37
2022-11-24T23:55:02.503Z,27.46
